KCLT/CLT METAR and TAF weather

Enter ICAO airport designator
Station Type Date Time Source
KCLT METAR 2023/01/30 10:52 UTC NOAA

KCLT 301052Z 21003KT 5SM BR FEW003 BKN075 BKN090 OVC130 08/07 A3016 RMK RAB12E38 SLP213 P0001 T00780072 $


Station Type Date Time Source
KCLT Decoded METAR 2023/01/30 10:52 UTC NOAA

CHARLOTTE/DOUGLAS INTERNATIONAL , NC, United States (KCLT) 35-13N 80-57W 220M
Jan 30, 2023 - 05:52 AM EST / 2023.01.30 1052 UTC
Wind: from the SSW (210 degrees) at 3 MPH (3 KT):0
Visibility: 5 mile(s):0
Sky conditions: overcast
Weather: mist
Precipitation last hour: 0.01 inches
Temperature: 46.0 F (7.8 C)
Dew Point: 45.0 F (7.2 C)
Relative Humidity: 95%
Pressure (altimeter): 30.16 in. Hg (1021 hPa)
ob: KCLT 301052Z 21003KT 5SM BR FEW003 BKN075 BKN090 OVC130 08/07 A3016 RMK RAB12E38 SLP213 P0001 T00780072
cycle: 11

Station Type Date Time Source
KCLT TAF 2023/01/30 10:51 UTC NOAA

TAF
AMD KCLT 300948Z 3010/3112 30003KT 4SM -RA BR SCT003 OVC030
TEMPO 3010/3012 BKN007
FM301200 24004KT 5SM BR VCSH OVC003
FM301500 25005KT 6SM BR OVC007
FM301900 26004KT P6SM OVC020
FM302200 25003KT P6SM OVC050
FM310300 17003KT P6SM OVC025
FM310500 17003KT 6SM BR SCT003 OVC007

Example: see airport list